createdAt,value
2023-04-14T00:00:10.780Z,7.00
2023-04-14T00:02:40.328Z,7.10
2023-04-14T00:05:09.308Z,7.20
2023-04-14T00:07:37.362Z,7.20
2023-04-14T00:10:05.747Z,6.40
2023-04-14T00:12:33.691Z,6.13
2023-04-14T00:15:01.646Z,6.50
2023-04-14T00:17:29.649Z,6.30
2023-04-14T00:19:58.967Z,6.67
2023-04-14T00:22:27.110Z,6.40
2023-04-14T00:24:55.164Z,5.50
2023-04-14T00:27:23.140Z,5.30
2023-04-14T00:29:51.068Z,5.70
2023-04-14T00:32:19.400Z,6.00
2023-04-14T00:34:47.337Z,6.20
2023-04-14T00:37:16.741Z,5.90
2023-04-14T00:39:44.806Z,6.00
2023-04-14T00:42:12.750Z,6.40
2023-04-14T00:44:40.707Z,6.87
2023-04-14T00:47:08.694Z,6.40
2023-04-14T00:49:37.739Z,6.90
2023-04-14T00:52:06.676Z,7.20
2023-04-14T00:54:36.550Z,7.10
2023-04-14T00:57:07.400Z,7.90
2023-04-14T00:59:35.751Z,7.90
2023-04-14T01:02:04.279Z,7.90
2023-04-14T01:04:49.179Z,8.27
2023-04-14T01:07:21.296Z,8.67
2023-04-14T01:09:51.115Z,9.30
2023-04-14T01:12:32.790Z,8.63
2023-04-14T01:15:08.789Z,8.70
2023-04-14T01:17:43.835Z,7.73
2023-04-14T01:20:20.050Z,7.87
2023-04-14T01:22:52.977Z,24.20
2023-04-14T01:25:57.246Z,25.37
2023-04-14T01:28:47.187Z,26.67
2023-04-14T01:31:24.059Z,22.37
2023-04-14T01:33:58.297Z,6.23
2023-04-14T01:36:34.626Z,21.57
2023-04-14T01:39:06.999Z,20.50
2023-04-14T01:41:38.584Z,19.90
2023-04-14T01:44:08.863Z,18.70
2023-04-14T01:46:39.332Z,17.60
2023-04-14T01:49:08.065Z,17.30
2023-04-14T01:51:36.919Z,17.83
2023-04-14T01:54:07.926Z,18.50
2023-04-14T01:56:37.564Z,16.60
2023-04-14T01:59:06.589Z,16.33
2023-04-14T02:01:38.835Z,14.43
2023-04-14T02:04:08.347Z,13.77
2023-04-14T02:06:38.114Z,13.33
2023-04-14T02:09:10.497Z,13.87
2023-04-14T02:11:40.645Z,14.20
2023-04-14T02:14:10.480Z,14.33
2023-04-14T02:16:41.019Z,16.27
2023-04-14T02:19:09.298Z,18.50
2023-04-14T02:21:37.285Z,16.80
2023-04-14T02:24:05.670Z,16.50
2023-04-14T02:26:36.687Z,15.70
2023-04-14T02:29:11.161Z,15.03
2023-04-14T02:31:44.024Z,13.33
2023-04-14T02:34:15.479Z,12.27
2023-04-14T02:36:47.944Z,12.87
2023-04-14T02:39:21.024Z,12.03
2023-04-14T02:41:54.908Z,10.27
2023-04-14T02:44:27.101Z,10.20
2023-04-14T02:47:03.800Z,9.00
2023-04-14T02:49:36.458Z,9.10
2023-04-14T02:52:06.420Z,7.60
2023-04-14T02:54:36.684Z,7.40
2023-04-14T02:57:05.502Z,6.83
2023-04-14T02:59:34.476Z,6.90
2023-04-14T03:02:06.263Z,6.80
2023-04-14T03:04:36.638Z,6.40
2023-04-14T03:07:06.599Z,6.00
2023-04-14T03:09:35.580Z,5.53
2023-04-14T03:12:05.606Z,6.17
2023-04-14T03:14:34.685Z,6.33
2023-04-14T03:17:05.478Z,6.90
2023-04-14T03:19:33.957Z,5.90
2023-04-14T03:22:03.777Z,6.20
2023-04-14T03:24:33.287Z,5.90
2023-04-14T03:27:06.407Z,5.50
2023-04-14T03:29:38.750Z,5.13
2023-04-14T03:32:12.166Z,5.60
2023-04-14T03:34:43.003Z,5.30
2023-04-14T03:37:12.230Z,5.23
2023-04-14T03:39:41.333Z,5.23
2023-04-14T03:42:10.517Z,5.03
2023-04-14T03:44:43.155Z,4.97
2023-04-14T03:47:14.516Z,5.00
2023-04-14T03:49:46.841Z,5.07
2023-04-14T03:52:16.811Z,4.93
2023-04-14T03:54:48.163Z,5.23
2023-04-14T03:57:18.548Z,6.03
2023-04-14T03:59:50.751Z,5.63
2023-04-14T04:02:22.489Z,5.73
2023-04-14T04:04:51.707Z,5.57
2023-04-14T04:07:22.089Z,5.37
2023-04-14T04:09:52.345Z,5.97
2023-04-14T04:12:24.394Z,6.20
2023-04-14T04:14:52.459Z,6.97
2023-04-14T04:17:25.323Z,6.70
2023-04-14T04:19:55.779Z,7.03
2023-04-14T04:22:27.279Z,1.20
2023-04-14T04:24:57.077Z,1.20
2023-04-14T04:27:28.194Z,1.57
2023-04-14T04:29:57.052Z,1.30
2023-04-14T04:32:26.694Z,1.10
2023-04-14T04:34:55.709Z,1.00
2023-04-14T04:37:28.251Z,1.13
2023-04-14T04:39:58.223Z,2.17
2023-04-14T04:42:26.363Z,1.10
2023-04-14T04:44:54.394Z,1.20
2023-04-14T04:47:22.403Z,1.00
2023-04-14T04:49:51.788Z,0.93
2023-04-14T04:52:19.742Z,4.70
2023-04-14T04:54:52.169Z,4.33
2023-04-14T04:57:20.275Z,3.60
2023-04-14T04:59:48.309Z,3.40
2023-04-14T05:02:16.435Z,2.83
2023-04-14T05:04:44.556Z,3.57
2023-04-14T05:07:14.038Z,3.50
2023-04-14T05:09:42.163Z,5.90
2023-04-14T05:12:10.111Z,4.20
2023-04-14T05:14:38.191Z,4.10
2023-04-14T05:17:06.120Z,4.13
2023-04-14T05:19:34.141Z,4.57
2023-04-14T05:22:02.930Z,0.90
2023-04-14T05:24:32.225Z,0.80
2023-04-14T05:27:13.752Z,1.03
2023-04-14T05:29:42.026Z,0.90
2023-04-14T05:32:10.781Z,1.67
2023-04-14T05:34:38.764Z,1.27
2023-04-14T05:37:06.931Z,1.20
2023-04-14T05:39:38.482Z,1.60
2023-04-14T05:42:06.728Z,4.43
2023-04-14T05:44:34.664Z,2.27
2023-04-14T05:47:02.662Z,1.53
2023-04-14T05:49:30.753Z,1.10
2023-04-14T05:51:58.851Z,2.70
2023-04-14T05:54:26.843Z,1.77
2023-04-14T05:56:56.458Z,2.37
2023-04-14T05:59:24.545Z,2.20
2023-04-14T06:01:52.705Z,2.93
2023-04-14T06:04:20.843Z,4.20
2023-04-14T06:06:48.900Z,4.57
2023-04-14T06:09:16.888Z,5.70
2023-04-14T06:11:44.797Z,4.20
2023-04-14T06:14:14.248Z,6.00
2023-04-14T06:16:42.203Z,5.33
2023-04-14T06:19:10.861Z,6.10
2023-04-14T06:21:38.952Z,6.33
2023-04-14T06:24:07.350Z,7.40
2023-04-14T06:26:35.293Z,14.00
2023-04-14T06:29:03.484Z,10.77
2023-04-14T06:31:33.089Z,4.23
2023-04-14T06:34:02.463Z,4.80
2023-04-14T06:36:31.681Z,9.90
2023-04-14T06:39:00.008Z,6.70
2023-04-14T06:41:28.321Z,7.70
2023-04-14T06:43:56.445Z,7.90
2023-04-14T06:46:24.495Z,9.20
2023-04-14T06:48:53.978Z,12.33
2023-04-14T06:51:21.937Z,13.13
2023-04-14T06:53:49.868Z,11.57
2023-04-14T06:56:17.799Z,14.37
2023-04-14T06:58:45.753Z,15.27
2023-04-14T07:01:13.853Z,15.83
2023-04-14T07:03:41.908Z,13.43
2023-04-14T07:06:12.600Z,16.90
2023-04-14T07:08:40.818Z,22.30
2023-04-14T07:11:11.313Z,18.77
2023-04-14T07:13:40.514Z,21.00
2023-04-14T07:16:09.074Z,23.43
2023-04-14T07:18:37.309Z,19.77
2023-04-14T07:21:05.869Z,24.53
2023-04-14T07:23:35.254Z,24.20
2023-04-14T07:26:03.269Z,26.80
2023-04-14T07:28:32.531Z,29.10
2023-04-14T07:31:01.131Z,29.00
2023-04-14T07:33:31.202Z,20.40
2023-04-14T07:36:03.647Z,24.77
2023-04-14T07:38:32.966Z,30.13
2023-04-14T07:41:05.203Z,27.43
2023-04-14T07:43:35.601Z,29.17
2023-04-14T07:46:05.503Z,31.43
2023-04-14T07:48:34.057Z,38.10
2023-04-14T07:51:03.136Z,43.40
2023-04-14T07:53:31.222Z,34.30
2023-04-14T07:55:59.589Z,30.80
2023-04-14T07:58:29.707Z,31.97
2023-04-14T08:01:00.355Z,28.50
2023-04-14T08:03:28.580Z,30.47
2023-04-14T08:05:57.577Z,26.77
2023-04-14T08:08:26.045Z,42.20
2023-04-14T08:10:54.057Z,46.27
2023-04-14T08:13:22.018Z,43.47
2023-04-14T08:15:51.612Z,42.00
2023-04-14T08:18:19.673Z,44.17
2023-04-14T08:20:47.650Z,46.83
2023-04-14T08:23:16.224Z,45.77
2023-04-14T08:25:44.678Z,46.20
2023-04-14T08:28:12.802Z,45.03
2023-04-14T08:30:41.434Z,48.43
2023-04-14T08:33:10.827Z,44.57
2023-04-14T08:35:42.556Z,48.10
2023-04-14T08:38:11.065Z,28.33
2023-04-14T08:40:40.973Z,30.60
2023-04-14T08:43:11.189Z,46.07
2023-04-14T08:45:42.082Z,39.00
2023-04-14T08:48:16.102Z,35.83
2023-04-14T08:50:50.534Z,30.33
2023-04-14T08:53:23.191Z,33.17
2023-04-14T08:55:52.730Z,33.97
2023-04-14T08:58:21.063Z,31.07
2023-04-14T09:00:50.756Z,50.63
2023-04-14T09:03:20.533Z,50.13
2023-04-14T09:05:49.510Z,49.40
2023-04-14T09:08:18.243Z,52.40
2023-04-14T09:10:46.647Z,49.90
2023-04-14T09:13:17.300Z,45.40
2023-04-14T09:15:45.399Z,52.92
2023-04-14T09:18:13.489Z,49.60
2023-04-14T09:20:43.147Z,49.43
2023-04-14T09:23:11.755Z,44.20
2023-04-14T09:25:40.321Z,45.43
2023-04-14T09:28:08.616Z,47.03
2023-04-14T09:30:36.596Z,47.00
2023-04-14T09:33:07.186Z,43.55
2023-04-14T09:35:47.442Z,44.60
2023-04-14T09:38:16.193Z,48.40
2023-04-14T09:40:45.204Z,47.57
2023-04-14T09:43:27.066Z,26.52
2023-04-14T09:45:56.723Z,48.10
2023-04-14T09:48:25.749Z,27.90
2023-04-14T09:51:07.060Z,25.60
2023-04-14T09:53:36.664Z,24.00
2023-04-14T09:56:06.227Z,27.40
2023-04-14T09:58:35.909Z,36.00
2023-04-14T10:01:05.671Z,25.27
2023-04-14T10:03:36.069Z,22.92
2023-04-14T10:06:09.762Z,23.88
2023-04-14T10:08:42.171Z,24.20
2023-04-14T10:11:20.977Z,22.38
2023-04-14T10:13:50.454Z,22.23
2023-04-14T10:16:18.741Z,40.43
2023-04-14T10:18:47.614Z,22.10
2023-04-14T10:21:17.667Z,24.85
2023-04-14T10:23:47.229Z,23.75
2023-04-14T10:26:15.865Z,22.55
2023-04-14T10:28:46.350Z,26.77
2023-04-14T10:31:20.277Z,26.73
2023-04-14T10:33:48.703Z,24.83
2023-04-14T10:36:26.582Z,24.35
2023-04-14T10:39:02.193Z,25.15
2023-04-14T10:41:45.377Z,25.75
2023-04-14T10:44:24.406Z,26.13
2023-04-14T10:46:54.207Z,23.00
2023-04-14T10:49:31.157Z,23.77
2023-04-14T10:52:02.164Z,23.23
2023-04-14T10:54:48.707Z,24.08
2023-04-14T10:57:17.742Z,23.77
2023-04-14T10:59:48.638Z,23.73
2023-04-14T11:02:30.965Z,22.80
2023-04-14T11:05:00.461Z,22.08
2023-04-14T11:07:31.396Z,35.70
2023-04-14T11:10:05.114Z,35.42
2023-04-14T11:12:42.998Z,37.53
2023-04-14T11:15:11.632Z,32.22
2023-04-14T11:17:40.424Z,36.47
2023-04-14T11:20:15.620Z,33.55
2023-04-14T11:22:46.870Z,27.08
2023-04-14T11:25:16.330Z,23.88
2023-04-14T11:27:45.135Z,26.30
2023-04-14T11:30:16.127Z,26.85
2023-04-14T11:32:47.806Z,24.50
2023-04-14T11:35:16.553Z,23.77
2023-04-14T11:37:46.498Z,24.00
2023-04-14T11:40:15.934Z,27.50
2023-04-14T11:42:46.758Z,26.73
2023-04-14T11:45:16.367Z,26.17
2023-04-14T11:47:48.980Z,39.13
2023-04-14T11:50:18.152Z,32.28
2023-04-14T11:52:48.138Z,29.92
2023-04-14T11:55:16.257Z,30.33
2023-04-14T11:57:45.829Z,34.97
2023-04-14T12:00:15.191Z,28.13
2023-04-14T12:02:44.526Z,27.50
2023-04-14T12:05:13.979Z,28.00
2023-04-14T12:07:44.570Z,25.25
2023-04-14T12:10:14.050Z,24.27
2023-04-14T12:12:42.629Z,26.85
2023-04-14T12:15:13.536Z,24.02
2023-04-14T12:17:42.755Z,24.40
2023-04-14T12:20:16.873Z,28.80
2023-04-14T12:22:44.926Z,27.02
2023-04-14T12:25:14.455Z,26.90
2023-04-14T12:27:42.492Z,25.00
2023-04-14T12:30:11.160Z,27.20
2023-04-14T12:32:40.743Z,24.85
2023-04-14T12:35:10.186Z,25.30
2023-04-14T12:37:38.801Z,27.77
2023-04-14T12:40:08.094Z,33.70
2023-04-14T12:42:48.356Z,32.97
2023-04-14T12:45:17.202Z,30.45
2023-04-14T12:47:53.933Z,31.75
2023-04-14T12:50:28.208Z,29.77
2023-04-14T12:52:56.941Z,31.98
2023-04-14T12:55:27.551Z,28.73
2023-04-14T12:57:58.505Z,26.52
2023-04-14T13:00:28.316Z,25.15
2023-04-14T13:02:56.808Z,27.33
2023-04-14T13:05:25.021Z,25.05
2023-04-14T13:07:52.972Z,25.27
2023-04-14T13:10:21.092Z,24.83
2023-04-14T13:12:49.143Z,25.60
2023-04-14T13:15:27.966Z,24.77
2023-04-14T13:18:06.442Z,23.90
2023-04-14T13:20:34.570Z,24.77
2023-04-14T13:23:02.621Z,25.27
2023-04-14T13:25:30.597Z,25.50
2023-04-14T13:27:58.557Z,22.60
2023-04-14T13:30:28.079Z,25.80
2023-04-14T13:32:57.936Z,24.50
2023-04-14T13:35:26.099Z,30.45
2023-04-14T13:37:54.054Z,25.25
2023-04-14T13:40:22.056Z,25.45
2023-04-14T13:42:50.071Z,25.33
2023-04-14T13:45:18.140Z,24.73
2023-04-14T13:47:49.159Z,26.58
2023-04-14T13:50:17.764Z,22.83
2023-04-14T13:52:45.721Z,24.67
2023-04-14T13:55:13.757Z,28.30
2023-04-14T13:57:41.710Z,29.67
2023-04-14T14:00:12.900Z,25.38
2023-04-14T14:02:41.283Z,33.13
2023-04-14T14:05:12.156Z,30.52
2023-04-14T14:07:40.349Z,29.17
2023-04-14T14:10:10.763Z,30.02
2023-04-14T14:12:39.384Z,46.28
2023-04-14T14:15:08.631Z,30.33
2023-04-14T14:17:37.358Z,31.95
2023-04-14T14:20:06.384Z,29.83
2023-04-14T14:22:35.736Z,28.85
2023-04-14T14:25:14.964Z,29.45
2023-04-14T14:27:47.069Z,35.97
2023-04-14T14:30:15.759Z,28.48
2023-04-14T14:32:43.797Z,23.02
2023-04-14T14:35:11.842Z,23.55
2023-04-14T14:37:43.306Z,25.38
2023-04-14T14:40:12.209Z,24.63
2023-04-14T14:42:40.142Z,25.30
2023-04-14T14:45:09.452Z,23.17
2023-04-14T14:47:39.046Z,22.98
2023-04-14T14:50:09.220Z,23.23
2023-04-14T14:52:37.495Z,20.77
2023-04-14T14:55:08.269Z,18.77
2023-04-14T14:57:36.296Z,20.63
2023-04-14T15:00:07.730Z,18.60
2023-04-14T15:02:36.670Z,18.40
2023-04-14T15:05:05.802Z,19.13
2023-04-14T15:07:33.772Z,18.25
2023-04-14T15:10:04.523Z,18.08
2023-04-14T15:12:33.998Z,18.75
2023-04-14T15:15:01.993Z,18.90
2023-04-14T15:17:29.967Z,19.30
2023-04-14T15:20:03.507Z,18.52
2023-04-14T15:22:31.566Z,23.15
2023-04-14T15:24:59.767Z,18.80
2023-04-14T15:27:27.770Z,18.92
2023-04-14T15:29:57.658Z,18.95
2023-04-14T15:32:26.644Z,20.05
2023-04-14T15:34:55.411Z,21.95
2023-04-14T15:37:23.369Z,18.85
2023-04-14T15:39:51.397Z,18.75
2023-04-14T15:42:19.378Z,18.65
2023-04-14T15:44:47.361Z,19.08
2023-04-14T15:47:16.667Z,18.52
2023-04-14T15:49:48.920Z,18.30
2023-04-14T15:52:27.944Z,18.48
2023-04-14T15:54:56.030Z,18.25
2023-04-14T15:57:24.435Z,19.20
2023-04-14T15:59:52.677Z,18.85
2023-04-14T16:02:22.161Z,18.75
2023-04-14T16:04:50.199Z,15.75
2023-04-14T16:07:18.175Z,18.13
2023-04-14T16:09:46.600Z,20.55
2023-04-14T16:12:14.548Z,20.83
2023-04-14T16:14:42.827Z,18.60
2023-04-14T16:17:10.791Z,18.13
2023-04-14T16:19:40.084Z,17.97
2023-04-14T16:22:08.298Z,17.80
2023-04-14T16:24:36.545Z,17.20
2023-04-14T16:27:04.656Z,17.10
2023-04-14T16:29:32.703Z,18.63
2023-04-14T16:32:00.638Z,16.37
2023-04-14T16:34:28.590Z,19.13
2023-04-14T16:36:58.023Z,20.00
2023-04-14T16:39:26.125Z,20.17
2023-04-14T16:41:54.099Z,20.60
2023-04-14T16:44:22.185Z,20.20
2023-04-14T16:46:50.249Z,20.57
2023-04-14T16:49:18.415Z,19.27
2023-04-14T16:51:46.404Z,20.57
2023-04-14T16:54:15.748Z,19.97
2023-04-14T16:56:43.788Z,19.93
2023-04-14T16:59:11.794Z,20.00
2023-04-14T17:01:39.942Z,19.97
2023-04-14T17:04:08.438Z,20.50
2023-04-14T17:06:36.909Z,20.33
2023-04-14T17:09:05.642Z,21.10
2023-04-14T17:11:34.936Z,20.13
2023-04-14T17:14:03.378Z,20.13
2023-04-14T17:16:31.680Z,20.33
2023-04-14T17:18:59.905Z,20.37
2023-04-14T17:21:27.829Z,20.63
2023-04-14T17:23:55.857Z,20.30
2023-04-14T17:26:24.746Z,20.58
2023-04-14T17:28:54.031Z,20.50
2023-04-14T17:31:22.042Z,19.80
2023-04-14T17:33:50.411Z,20.05
2023-04-14T17:36:18.422Z,20.20
2023-04-14T17:38:46.657Z,20.50
2023-04-14T17:41:14.920Z,21.00
2023-04-14T17:43:43.031Z,20.60
2023-04-14T17:46:12.618Z,20.00
2023-04-14T17:48:41.088Z,19.70
2023-04-14T17:51:09.180Z,20.55
2023-04-14T17:53:37.547Z,20.90
2023-04-14T17:56:05.980Z,20.50
2023-04-14T17:58:33.982Z,20.38
2023-04-14T18:01:02.027Z,21.67
2023-04-14T18:03:31.507Z,23.60
2023-04-14T18:05:59.531Z,23.45
2023-04-14T18:08:27.515Z,23.70
2023-04-14T18:10:55.493Z,22.90
2023-04-14T18:13:23.633Z,23.13
2023-04-14T18:15:51.653Z,23.08
2023-04-14T18:18:20.047Z,25.17
2023-04-14T18:20:52.162Z,23.75
2023-04-14T18:23:20.199Z,23.77
2023-04-14T18:28:19.187Z,26.20
2023-04-14T18:30:54.134Z,24.87
2023-04-14T18:33:22.347Z,24.83
2023-04-14T18:35:56.776Z,25.83
2023-04-14T18:38:25.358Z,25.50
2023-04-14T18:40:53.562Z,25.17
2023-04-14T18:43:21.534Z,25.50
2023-04-14T18:45:50.128Z,24.87
2023-04-14T18:48:18.577Z,25.23
2023-04-14T18:50:46.744Z,25.90
2023-04-14T18:53:16.037Z,26.00
2023-04-14T18:55:45.647Z,25.87
2023-04-14T18:58:14.088Z,25.90
2023-04-14T19:00:43.207Z,25.33
2023-04-14T19:03:11.210Z,24.63
2023-04-14T19:05:39.469Z,25.00
2023-04-14T19:08:07.880Z,23.60
2023-04-14T19:10:37.421Z,23.63
2023-04-14T19:13:05.790Z,23.17
2023-04-14T19:15:33.897Z,23.27
2023-04-14T19:18:03.637Z,23.50
2023-04-14T19:20:31.794Z,24.47
2023-04-14T19:22:59.820Z,24.30
2023-04-14T19:25:27.932Z,22.30
2023-04-14T19:27:58.063Z,23.03
2023-04-14T19:30:26.056Z,22.33
2023-04-14T19:32:54.468Z,21.87
2023-04-14T19:35:23.684Z,20.70
2023-04-14T19:37:55.553Z,20.80
2023-04-14T19:40:24.236Z,21.50
2023-04-14T19:42:55.142Z,21.90
2023-04-14T19:45:24.993Z,20.57
2023-04-14T19:47:52.977Z,20.33
2023-04-14T19:50:22.761Z,19.73
2023-04-14T19:52:52.070Z,19.57
2023-04-14T19:55:20.322Z,19.90
2023-04-14T19:57:48.314Z,19.63
2023-04-14T20:00:17.061Z,19.97
2023-04-14T20:02:46.460Z,21.10
2023-04-14T20:05:14.474Z,20.70
2023-04-14T20:07:42.438Z,20.50
2023-04-14T20:10:12.023Z,20.73
2023-04-14T20:12:40.406Z,20.83
2023-04-14T20:15:09.901Z,20.70
2023-04-14T20:17:37.919Z,21.83
2023-04-14T20:20:09.025Z,21.17
2023-04-14T20:22:37.036Z,20.93
2023-04-14T20:25:05.602Z,22.77
2023-04-14T20:27:33.656Z,21.77
2023-04-14T20:30:01.775Z,20.17
2023-04-14T20:32:30.106Z,21.17
2023-04-14T20:34:58.806Z,21.53
2023-04-14T20:37:29.008Z,20.37
2023-04-14T20:39:57.099Z,20.73
2023-04-14T20:42:26.082Z,21.00
2023-04-14T20:44:54.061Z,21.10
2023-04-14T20:47:22.465Z,21.73
2023-04-14T20:49:50.523Z,21.67
2023-04-14T20:52:18.459Z,21.23
2023-04-14T20:54:47.790Z,19.93
2023-04-14T20:57:15.791Z,19.50
2023-04-14T20:59:43.744Z,20.27
2023-04-14T21:02:13.215Z,19.60
2023-04-14T21:04:41.235Z,19.50
2023-04-14T21:07:09.211Z,19.27
2023-04-14T21:09:37.333Z,19.10
2023-04-14T21:12:15.424Z,19.40
2023-04-14T21:15:29.719Z,20.37
2023-04-14T21:17:34.309Z,19.87
2023-04-14T21:20:02.706Z,19.47
2023-04-14T21:22:31.035Z,19.67
2023-04-14T21:25:00.436Z,18.87
2023-04-14T21:27:29.775Z,19.60
2023-04-14T21:29:57.813Z,19.57
2023-04-14T21:32:25.812Z,19.30
2023-04-14T21:34:53.833Z,18.67
2023-04-14T21:37:22.037Z,18.77
2023-04-14T21:39:50.011Z,18.50
2023-04-14T21:42:18.167Z,18.90
2023-04-14T21:44:49.218Z,18.70
2023-04-14T21:47:17.757Z,18.53
2023-04-14T21:49:46.052Z,19.20
2023-04-14T21:52:14.010Z,18.93
2023-04-14T21:54:44.389Z,19.03
2023-04-14T21:57:12.589Z,18.97
2023-04-14T21:59:40.622Z,19.60
2023-04-14T22:02:11.731Z,18.57
2023-04-14T22:04:41.001Z,18.57
2023-04-14T22:07:09.447Z,18.83
2023-04-14T22:09:37.411Z,18.97
2023-04-14T22:12:05.406Z,18.80
2023-04-14T22:14:33.599Z,18.53
2023-04-14T22:17:01.907Z,19.80
2023-04-14T22:19:31.424Z,19.60
2023-04-14T22:21:59.976Z,19.33
2023-04-14T22:24:28.856Z,19.20
2023-04-14T22:26:57.420Z,19.43
2023-04-14T22:29:25.859Z,19.73
2023-04-14T22:31:53.827Z,19.77
2023-04-14T22:34:21.784Z,19.57
2023-04-14T22:36:51.097Z,19.77
2023-04-14T22:39:19.281Z,19.63
2023-04-14T22:41:49.652Z,19.87
2023-04-14T22:44:17.950Z,20.80
2023-04-14T22:46:46.124Z,19.77
2023-04-14T22:49:14.131Z,20.80
2023-04-14T22:51:42.126Z,20.07
2023-04-14T22:54:11.432Z,20.30
2023-04-14T22:56:40.989Z,20.30
2023-04-14T22:59:08.977Z,19.67
2023-04-14T23:01:36.978Z,19.03
2023-04-14T23:04:05.476Z,19.30
2023-04-14T23:06:34.108Z,19.17
2023-04-14T23:09:02.395Z,19.30
2023-04-14T23:11:32.044Z,19.27
2023-04-14T23:14:00.068Z,20.03
2023-04-14T23:16:28.214Z,19.40
2023-04-14T23:18:56.290Z,18.97
2023-04-14T23:21:24.991Z,18.97
2023-04-14T23:23:53.217Z,18.87
2023-04-14T23:26:23.135Z,19.13
2023-04-14T23:28:53.096Z,19.50
2023-04-14T23:31:21.210Z,18.93
2023-04-14T23:33:51.655Z,19.17
2023-04-14T23:36:19.884Z,18.87
2023-04-14T23:38:47.851Z,18.87
2023-04-14T23:41:15.878Z,18.70
2023-04-14T23:43:44.023Z,18.97
2023-04-14T23:46:13.385Z,20.03
2023-04-14T23:48:41.386Z,19.13
2023-04-14T23:51:20.782Z,19.27
2023-04-14T23:53:49.432Z,19.60
2023-04-14T23:56:17.580Z,19.80
2023-04-14T23:58:45.575Z,19.67
